sensor_id;sensor_type;location;lat;lon;timestamp;P1;durP1;ratioP1;P2;durP2;ratioP2
54123;SDS011;55741;53.252;5.788;2022-12-18T00:01:44;131.23;;;45.47;;
54123;SDS011;55741;53.252;5.788;2022-12-18T00:04:20;126.57;;;46.58;;
54123;SDS011;55741;53.252;5.788;2022-12-18T00:06:47;116.28;;;44.80;;
54123;SDS011;55741;53.252;5.788;2022-12-18T00:09:13;132.00;;;45.47;;
54123;SDS011;55741;53.252;5.788;2022-12-18T00:11:39;116.40;;;43.83;;
54123;SDS011;55741;53.252;5.788;2022-12-18T00:14:05;116.60;;;45.80;;
54123;SDS011;55741;53.252;5.788;2022-12-18T00:16:31;115.82;;;46.58;;
54123;SDS011;55741;53.252;5.788;2022-12-18T00:19:00;122.72;;;46.83;;
54123;SDS011;55741;53.252;5.788;2022-12-18T00:21:27;121.07;;;45.25;;
54123;SDS011;55741;53.252;5.788;2022-12-18T00:23:54;122.53;;;47.92;;
54123;SDS011;55741;53.252;5.788;2022-12-18T00:26:23;125.10;;;46.60;;
54123;SDS011;55741;53.252;5.788;2022-12-18T00:29:06;125.07;;;47.53;;
54123;SDS011;55741;53.252;5.788;2022-12-18T00:31:35;118.60;;;44.00;;
54123;SDS011;55741;53.252;5.788;2022-12-18T00:34:02;114.95;;;45.97;;
54123;SDS011;55741;53.252;5.788;2022-12-18T00:36:30;119.85;;;47.50;;
54123;SDS011;55741;53.252;5.788;2022-12-18T00:38:58;121.07;;;44.47;;
54123;SDS011;55741;53.252;5.788;2022-12-18T00:41:28;109.88;;;44.10;;
54123;SDS011;55741;53.252;5.788;2022-12-18T00:44:13;112.47;;;43.28;;
54123;SDS011;55741;53.252;5.788;2022-12-18T00:46:42;122.00;;;46.45;;
54123;SDS011;55741;53.252;5.788;2022-12-18T00:49:08;129.73;;;46.67;;
54123;SDS011;55741;53.252;5.788;2022-12-18T00:51:34;129.05;;;48.00;;
54123;SDS011;55741;53.252;5.788;2022-12-18T00:54:00;125.60;;;46.63;;
54123;SDS011;55741;53.252;5.788;2022-12-18T00:56:28;122.78;;;44.85;;
54123;SDS011;55741;53.252;5.788;2022-12-18T00:58:54;123.70;;;46.85;;
54123;SDS011;55741;53.252;5.788;2022-12-18T01:01:20;120.55;;;43.78;;
54123;SDS011;55741;53.252;5.788;2022-12-18T01:03:46;113.22;;;44.45;;
54123;SDS011;55741;53.252;5.788;2022-12-18T01:06:13;111.82;;;44.50;;
54123;SDS011;55741;53.252;5.788;2022-12-18T01:08:39;121.35;;;47.45;;
54123;SDS011;55741;53.252;5.788;2022-12-18T01:11:10;102.63;;;39.00;;
54123;SDS011;55741;53.252;5.788;2022-12-18T01:13:39;112.32;;;44.58;;
54123;SDS011;55741;53.252;5.788;2022-12-18T01:16:06;112.22;;;45.40;;
54123;SDS011;55741;53.252;5.788;2022-12-18T01:18:40;112.25;;;45.03;;
54123;SDS011;55741;53.252;5.788;2022-12-18T01:21:07;107.85;;;40.50;;
54123;SDS011;55741;53.252;5.788;2022-12-18T01:23:34;110.35;;;41.63;;
54123;SDS011;55741;53.252;5.788;2022-12-18T01:26:13;112.45;;;44.65;;
54123;SDS011;55741;53.252;5.788;2022-12-18T01:28:40;94.95;;;38.40;;
54123;SDS011;55741;53.252;5.788;2022-12-18T01:31:11;104.68;;;41.15;;
54123;SDS011;55741;53.252;5.788;2022-12-18T01:33:43;103.38;;;42.83;;
54123;SDS011;55741;53.252;5.788;2022-12-18T01:36:17;109.30;;;41.00;;
54123;SDS011;55741;53.252;5.788;2022-12-18T01:38:52;94.15;;;39.05;;
54123;SDS011;55741;53.252;5.788;2022-12-18T01:41:20;93.97;;;40.33;;
54123;SDS011;55741;53.252;5.788;2022-12-18T01:43:57;98.70;;;39.97;;
54123;SDS011;55741;53.252;5.788;2022-12-18T01:46:23;96.55;;;39.65;;
54123;SDS011;55741;53.252;5.788;2022-12-18T01:48:52;101.57;;;40.42;;
54123;SDS011;55741;53.252;5.788;2022-12-18T01:51:29;108.80;;;41.13;;
54123;SDS011;55741;53.252;5.788;2022-12-18T01:53:56;98.90;;;39.47;;
54123;SDS011;55741;53.252;5.788;2022-12-18T01:56:24;102.28;;;40.40;;
54123;SDS011;55741;53.252;5.788;2022-12-18T01:58:59;94.45;;;39.08;;
54123;SDS011;55741;53.252;5.788;2022-12-18T02:01:30;92.65;;;37.05;;
54123;SDS011;55741;53.252;5.788;2022-12-18T02:04:14;89.10;;;37.20;;
54123;SDS011;55741;53.252;5.788;2022-12-18T02:06:50;97.65;;;36.40;;
54123;SDS011;55741;53.252;5.788;2022-12-18T02:09:20;97.50;;;36.22;;
54123;SDS011;55741;53.252;5.788;2022-12-18T02:12:00;90.20;;;36.50;;
54123;SDS011;55741;53.252;5.788;2022-12-18T02:17:30;87.30;;;37.30;;
54123;SDS011;55741;53.252;5.788;2022-12-18T02:28:34;83.05;;;34.78;;
54123;SDS011;55741;53.252;5.788;2022-12-18T02:31:17;90.57;;;35.45;;
54123;SDS011;55741;53.252;5.788;2022-12-18T02:33:48;90.50;;;35.33;;
54123;SDS011;55741;53.252;5.788;2022-12-18T02:36:16;90.13;;;36.55;;
54123;SDS011;55741;53.252;5.788;2022-12-18T02:38:43;90.97;;;35.95;;
54123;SDS011;55741;53.252;5.788;2022-12-18T02:41:11;98.32;;;37.17;;
54123;SDS011;55741;53.252;5.788;2022-12-18T02:43:39;95.57;;;37.13;;
54123;SDS011;55741;53.252;5.788;2022-12-18T02:51:46;94.55;;;36.50;;
54123;SDS011;55741;53.252;5.788;2022-12-18T02:54:44;98.88;;;38.08;;
54123;SDS011;55741;53.252;5.788;2022-12-18T03:00:33;97.47;;;37.30;;
54123;SDS011;55741;53.252;5.788;2022-12-18T03:03:07;93.03;;;33.97;;
54123;SDS011;55741;53.252;5.788;2022-12-18T03:08:15;94.70;;;35.35;;
54123;SDS011;55741;53.252;5.788;2022-12-18T03:10:53;91.38;;;32.70;;
54123;SDS011;55741;53.252;5.788;2022-12-18T03:13:40;90.25;;;35.40;;
54123;SDS011;55741;53.252;5.788;2022-12-18T03:16:12;105.05;;;35.70;;
54123;SDS011;55741;53.252;5.788;2022-12-18T03:18:45;82.50;;;34.00;;
54123;SDS011;55741;53.252;5.788;2022-12-18T03:21:15;95.13;;;36.35;;
54123;SDS011;55741;53.252;5.788;2022-12-18T03:23:44;90.25;;;33.63;;
54123;SDS011;55741;53.252;5.788;2022-12-18T03:26:18;94.40;;;34.70;;
54123;SDS011;55741;53.252;5.788;2022-12-18T03:28:55;94.22;;;34.63;;
54123;SDS011;55741;53.252;5.788;2022-12-18T03:31:24;94.55;;;35.45;;
54123;SDS011;55741;53.252;5.788;2022-12-18T03:33:55;82.35;;;32.70;;
54123;SDS011;55741;53.252;5.788;2022-12-18T03:36:24;88.05;;;32.55;;
54123;SDS011;55741;53.252;5.788;2022-12-18T03:38:50;91.07;;;35.00;;
54123;SDS011;55741;53.252;5.788;2022-12-18T03:43:57;89.28;;;33.45;;
54123;SDS011;55741;53.252;5.788;2022-12-18T03:46:41;87.10;;;32.92;;
54123;SDS011;55741;53.252;5.788;2022-12-18T03:52:02;85.38;;;32.45;;
54123;SDS011;55741;53.252;5.788;2022-12-18T03:54:38;78.25;;;32.88;;
54123;SDS011;55741;53.252;5.788;2022-12-18T03:57:18;86.43;;;34.25;;
54123;SDS011;55741;53.252;5.788;2022-12-18T03:59:48;82.38;;;34.45;;
54123;SDS011;55741;53.252;5.788;2022-12-18T04:02:19;86.50;;;33.60;;
54123;SDS011;55741;53.252;5.788;2022-12-18T04:04:48;95.90;;;35.13;;
54123;SDS011;55741;53.252;5.788;2022-12-18T04:07:21;83.47;;;32.60;;
54123;SDS011;55741;53.252;5.788;2022-12-18T04:09:48;92.25;;;34.72;;
54123;SDS011;55741;53.252;5.788;2022-12-18T04:12:15;81.82;;;32.40;;
54123;SDS011;55741;53.252;5.788;2022-12-18T04:14:41;83.85;;;31.85;;
54123;SDS011;55741;53.252;5.788;2022-12-18T04:17:07;77.40;;;32.10;;
54123;SDS011;55741;53.252;5.788;2022-12-18T04:19:33;89.70;;;33.17;;
54123;SDS011;55741;53.252;5.788;2022-12-18T04:21:59;78.07;;;33.72;;
54123;SDS011;55741;53.252;5.788;2022-12-18T04:24:25;92.78;;;37.13;;
54123;SDS011;55741;53.252;5.788;2022-12-18T04:26:51;86.85;;;35.22;;
54123;SDS011;55741;53.252;5.788;2022-12-18T04:29:17;88.45;;;34.97;;
54123;SDS011;55741;53.252;5.788;2022-12-18T04:31:43;88.65;;;34.35;;
54123;SDS011;55741;53.252;5.788;2022-12-18T04:34:09;86.38;;;33.40;;
54123;SDS011;55741;53.252;5.788;2022-12-18T04:36:35;86.28;;;34.03;;
54123;SDS011;55741;53.252;5.788;2022-12-18T04:39:01;96.50;;;35.28;;
54123;SDS011;55741;53.252;5.788;2022-12-18T04:41:27;95.40;;;34.42;;
54123;SDS011;55741;53.252;5.788;2022-12-18T04:43:52;88.72;;;35.83;;
54123;SDS011;55741;53.252;5.788;2022-12-18T04:46:18;91.63;;;33.80;;
54123;SDS011;55741;53.252;5.788;2022-12-18T04:48:45;84.05;;;34.15;;
54123;SDS011;55741;53.252;5.788;2022-12-18T04:51:13;92.65;;;34.55;;
54123;SDS011;55741;53.252;5.788;2022-12-18T04:53:38;80.72;;;34.53;;
54123;SDS011;55741;53.252;5.788;2022-12-18T04:56:14;90.50;;;36.05;;
54123;SDS011;55741;53.252;5.788;2022-12-18T04:58:42;95.10;;;35.70;;
54123;SDS011;55741;53.252;5.788;2022-12-18T05:01:09;86.75;;;35.35;;
54123;SDS011;55741;53.252;5.788;2022-12-18T05:03:38;95.00;;;37.22;;
54123;SDS011;55741;53.252;5.788;2022-12-18T05:06:05;89.57;;;35.83;;
54123;SDS011;55741;53.252;5.788;2022-12-18T05:08:39;91.03;;;37.03;;
54123;SDS011;55741;53.252;5.788;2022-12-18T05:11:05;91.03;;;34.17;;
54123;SDS011;55741;53.252;5.788;2022-12-18T05:13:33;88.57;;;34.75;;
54123;SDS011;55741;53.252;5.788;2022-12-18T05:16:00;96.03;;;34.97;;
54123;SDS011;55741;53.252;5.788;2022-12-18T05:18:28;83.78;;;35.63;;
54123;SDS011;55741;53.252;5.788;2022-12-18T05:20:54;97.05;;;33.60;;
54123;SDS011;55741;53.252;5.788;2022-12-18T05:23:21;92.22;;;34.35;;
54123;SDS011;55741;53.252;5.788;2022-12-18T05:25:52;77.10;;;32.75;;
54123;SDS011;55741;53.252;5.788;2022-12-18T05:28:23;91.75;;;35.08;;
54123;SDS011;55741;53.252;5.788;2022-12-18T05:30:51;86.13;;;33.53;;
54123;SDS011;55741;53.252;5.788;2022-12-18T05:33:19;71.45;;;31.92;;
54123;SDS011;55741;53.252;5.788;2022-12-18T05:35:56;69.68;;;31.15;;
54123;SDS011;55741;53.252;5.788;2022-12-18T05:38:24;82.15;;;32.08;;
54123;SDS011;55741;53.252;5.788;2022-12-18T05:40:58;74.80;;;33.78;;
54123;SDS011;55741;53.252;5.788;2022-12-18T05:43:24;72.00;;;31.38;;
54123;SDS011;55741;53.252;5.788;2022-12-18T05:45:51;73.32;;;29.30;;
54123;SDS011;55741;53.252;5.788;2022-12-18T05:48:18;67.03;;;31.55;;
54123;SDS011;55741;53.252;5.788;2022-12-18T05:50:45;72.63;;;31.67;;
54123;SDS011;55741;53.252;5.788;2022-12-18T05:53:13;78.47;;;31.35;;
54123;SDS011;55741;53.252;5.788;2022-12-18T05:55:40;73.30;;;31.08;;
54123;SDS011;55741;53.252;5.788;2022-12-18T05:58:08;68.85;;;30.30;;
54123;SDS011;55741;53.252;5.788;2022-12-18T06:00:35;74.63;;;30.02;;
54123;SDS011;55741;53.252;5.788;2022-12-18T06:03:11;76.13;;;30.05;;
54123;SDS011;55741;53.252;5.788;2022-12-18T06:05:44;74.97;;;30.95;;
54123;SDS011;55741;53.252;5.788;2022-12-18T06:08:10;72.43;;;30.88;;
54123;SDS011;55741;53.252;5.788;2022-12-18T06:10:37;69.60;;;28.67;;
54123;SDS011;55741;53.252;5.788;2022-12-18T06:13:12;72.90;;;30.33;;
54123;SDS011;55741;53.252;5.788;2022-12-18T06:15:46;71.45;;;30.30;;
54123;SDS011;55741;53.252;5.788;2022-12-18T06:18:11;78.03;;;30.65;;
54123;SDS011;55741;53.252;5.788;2022-12-18T06:20:37;69.13;;;28.95;;
54123;SDS011;55741;53.252;5.788;2022-12-18T06:23:05;76.78;;;30.73;;
54123;SDS011;55741;53.252;5.788;2022-12-18T06:25:31;66.30;;;29.35;;
54123;SDS011;55741;53.252;5.788;2022-12-18T06:27:58;71.43;;;28.83;;
54123;SDS011;55741;53.252;5.788;2022-12-18T06:30:24;69.38;;;31.70;;
54123;SDS011;55741;53.252;5.788;2022-12-18T06:32:50;71.82;;;31.65;;
54123;SDS011;55741;53.252;5.788;2022-12-18T06:35:16;64.40;;;28.38;;
54123;SDS011;55741;53.252;5.788;2022-12-18T06:37:42;60.00;;;28.90;;
54123;SDS011;55741;53.252;5.788;2022-12-18T06:40:08;71.60;;;29.77;;
54123;SDS011;55741;53.252;5.788;2022-12-18T06:42:34;66.18;;;28.02;;
54123;SDS011;55741;53.252;5.788;2022-12-18T06:45:03;69.18;;;28.20;;
54123;SDS011;55741;53.252;5.788;2022-12-18T06:47:30;63.55;;;26.77;;
54123;SDS011;55741;53.252;5.788;2022-12-18T06:49:56;62.78;;;27.73;;
54123;SDS011;55741;53.252;5.788;2022-12-18T06:52:22;60.95;;;28.42;;
54123;SDS011;55741;53.252;5.788;2022-12-18T06:54:48;57.13;;;26.85;;
54123;SDS011;55741;53.252;5.788;2022-12-18T06:57:13;58.95;;;28.35;;
54123;SDS011;55741;53.252;5.788;2022-12-18T06:59:44;59.92;;;26.88;;
54123;SDS011;55741;53.252;5.788;2022-12-18T07:02:11;61.80;;;26.73;;
54123;SDS011;55741;53.252;5.788;2022-12-18T07:04:39;55.65;;;24.17;;
54123;SDS011;55741;53.252;5.788;2022-12-18T07:07:07;60.13;;;24.73;;
54123;SDS011;55741;53.252;5.788;2022-12-18T07:09:33;54.13;;;24.75;;
54123;SDS011;55741;53.252;5.788;2022-12-18T07:11:59;59.83;;;25.33;;
54123;SDS011;55741;53.252;5.788;2022-12-18T07:14:25;53.03;;;26.55;;
54123;SDS011;55741;53.252;5.788;2022-12-18T07:16:51;57.80;;;24.58;;
54123;SDS011;55741;53.252;5.788;2022-12-18T07:19:17;59.65;;;25.00;;
54123;SDS011;55741;53.252;5.788;2022-12-18T07:21:43;61.13;;;24.80;;
54123;SDS011;55741;53.252;5.788;2022-12-18T07:24:11;55.10;;;24.17;;
54123;SDS011;55741;53.252;5.788;2022-12-18T07:26:36;55.45;;;24.10;;
54123;SDS011;55741;53.252;5.788;2022-12-18T07:29:03;50.47;;;23.50;;
54123;SDS011;55741;53.252;5.788;2022-12-18T07:31:28;48.00;;;24.00;;
54123;SDS011;55741;53.252;5.788;2022-12-18T07:33:54;52.67;;;21.90;;
54123;SDS011;55741;53.252;5.788;2022-12-18T07:36:20;50.35;;;22.35;;
54123;SDS011;55741;53.252;5.788;2022-12-18T07:38:46;48.97;;;21.60;;
54123;SDS011;55741;53.252;5.788;2022-12-18T07:41:13;51.25;;;22.67;;
54123;SDS011;55741;53.252;5.788;2022-12-18T07:43:41;45.20;;;22.73;;
54123;SDS011;55741;53.252;5.788;2022-12-18T07:46:08;44.78;;;20.40;;
54123;SDS011;55741;53.252;5.788;2022-12-18T07:48:38;49.85;;;23.35;;
54123;SDS011;55741;53.252;5.788;2022-12-18T07:51:05;46.30;;;19.98;;
54123;SDS011;55741;53.252;5.788;2022-12-18T07:53:32;42.90;;;20.13;;
54123;SDS011;55741;53.252;5.788;2022-12-18T07:56:05;41.88;;;18.98;;
54123;SDS011;55741;53.252;5.788;2022-12-18T07:58:33;46.97;;;21.92;;
54123;SDS011;55741;53.252;5.788;2022-12-18T08:01:07;43.75;;;20.67;;
54123;SDS011;55741;53.252;5.788;2022-12-18T08:03:34;41.28;;;19.55;;
54123;SDS011;55741;53.252;5.788;2022-12-18T08:06:04;42.08;;;18.85;;
54123;SDS011;55741;53.252;5.788;2022-12-18T08:08:33;49.97;;;23.08;;
54123;SDS011;55741;53.252;5.788;2022-12-18T08:11:00;44.33;;;21.27;;
54123;SDS011;55741;53.252;5.788;2022-12-18T08:13:26;41.55;;;20.42;;
54123;SDS011;55741;53.252;5.788;2022-12-18T08:16:00;41.60;;;19.80;;
54123;SDS011;55741;53.252;5.788;2022-12-18T08:18:28;49.27;;;20.90;;
54123;SDS011;55741;53.252;5.788;2022-12-18T08:20:54;39.38;;;19.27;;
54123;SDS011;55741;53.252;5.788;2022-12-18T08:23:20;47.28;;;22.05;;
54123;SDS011;55741;53.252;5.788;2022-12-18T08:25:47;41.85;;;19.40;;
54123;SDS011;55741;53.252;5.788;2022-12-18T08:28:13;42.92;;;20.33;;
54123;SDS011;55741;53.252;5.788;2022-12-18T08:30:42;43.90;;;20.75;;
54123;SDS011;55741;53.252;5.788;2022-12-18T08:33:09;43.40;;;19.85;;
54123;SDS011;55741;53.252;5.788;2022-12-18T08:35:35;45.67;;;20.08;;
54123;SDS011;55741;53.252;5.788;2022-12-18T08:38:02;39.03;;;19.52;;
54123;SDS011;55741;53.252;5.788;2022-12-18T08:40:29;48.63;;;22.67;;
54123;SDS011;55741;53.252;5.788;2022-12-18T08:42:54;46.03;;;20.83;;
54123;SDS011;55741;53.252;5.788;2022-12-18T08:45:39;41.47;;;19.95;;
54123;SDS011;55741;53.252;5.788;2022-12-18T08:48:05;37.15;;;18.52;;
54123;SDS011;55741;53.252;5.788;2022-12-18T08:50:31;37.72;;;17.65;;
54123;SDS011;55741;53.252;5.788;2022-12-18T08:52:57;39.92;;;17.67;;
54123;SDS011;55741;53.252;5.788;2022-12-18T08:55:23;37.88;;;18.75;;
54123;SDS011;55741;53.252;5.788;2022-12-18T08:57:50;42.38;;;18.95;;
54123;SDS011;55741;53.252;5.788;2022-12-18T09:00:16;35.70;;;18.60;;
54123;SDS011;55741;53.252;5.788;2022-12-18T09:02:42;34.45;;;17.40;;
54123;SDS011;55741;53.252;5.788;2022-12-18T09:05:08;38.33;;;18.35;;
54123;SDS011;55741;53.252;5.788;2022-12-18T09:07:34;40.33;;;18.25;;
54123;SDS011;55741;53.252;5.788;2022-12-18T09:10:01;34.25;;;18.27;;
54123;SDS011;55741;53.252;5.788;2022-12-18T09:12:27;33.05;;;16.55;;
54123;SDS011;55741;53.252;5.788;2022-12-18T09:14:53;36.03;;;18.65;;
54123;SDS011;55741;53.252;5.788;2022-12-18T09:17:19;37.33;;;18.80;;
54123;SDS011;55741;53.252;5.788;2022-12-18T09:19:45;33.88;;;17.10;;
54123;SDS011;55741;53.252;5.788;2022-12-18T09:22:11;37.80;;;17.30;;
54123;SDS011;55741;53.252;5.788;2022-12-18T09:24:37;32.40;;;17.35;;
54123;SDS011;55741;53.252;5.788;2022-12-18T09:27:03;35.65;;;18.35;;
54123;SDS011;55741;53.252;5.788;2022-12-18T09:29:29;32.47;;;17.90;;
54123;SDS011;55741;53.252;5.788;2022-12-18T09:31:55;38.85;;;18.40;;
54123;SDS011;55741;53.252;5.788;2022-12-18T09:34:21;33.95;;;16.92;;
54123;SDS011;55741;53.252;5.788;2022-12-18T09:36:47;33.58;;;16.52;;
54123;SDS011;55741;53.252;5.788;2022-12-18T09:39:14;33.20;;;17.88;;
54123;SDS011;55741;53.252;5.788;2022-12-18T09:41:47;35.78;;;17.55;;
54123;SDS011;55741;53.252;5.788;2022-12-18T09:47:27;29.52;;;15.98;;
54123;SDS011;55741;53.252;5.788;2022-12-18T09:52:45;30.67;;;15.50;;
54123;SDS011;55741;53.252;5.788;2022-12-18T09:55:23;35.60;;;15.75;;
54123;SDS011;55741;53.252;5.788;2022-12-18T09:58:17;36.58;;;17.38;;
54123;SDS011;55741;53.252;5.788;2022-12-18T10:00:51;38.10;;;15.98;;
54123;SDS011;55741;53.252;5.788;2022-12-18T10:03:18;30.17;;;16.23;;
54123;SDS011;55741;53.252;5.788;2022-12-18T10:06:23;29.88;;;15.25;;
54123;SDS011;55741;53.252;5.788;2022-12-18T10:09:05;31.48;;;14.50;;
54123;SDS011;55741;53.252;5.788;2022-12-18T10:11:53;31.65;;;14.98;;
54123;SDS011;55741;53.252;5.788;2022-12-18T10:14:48;27.75;;;13.70;;
54123;SDS011;55741;53.252;5.788;2022-12-18T10:20:36;28.73;;;14.00;;
54123;SDS011;55741;53.252;5.788;2022-12-18T10:23:14;26.23;;;13.88;;
54123;SDS011;55741;53.252;5.788;2022-12-18T10:28:35;24.73;;;14.13;;
54123;SDS011;55741;53.252;5.788;2022-12-18T10:31:04;23.65;;;13.32;;
54123;SDS011;55741;53.252;5.788;2022-12-18T10:33:32;27.88;;;13.93;;
54123;SDS011;55741;53.252;5.788;2022-12-18T10:35:59;27.73;;;13.45;;
54123;SDS011;55741;53.252;5.788;2022-12-18T10:38:29;25.60;;;13.02;;
54123;SDS011;55741;53.252;5.788;2022-12-18T10:41:01;25.73;;;13.23;;
54123;SDS011;55741;53.252;5.788;2022-12-18T10:43:38;23.30;;;14.13;;
54123;SDS011;55741;53.252;5.788;2022-12-18T10:48:34;32.40;;;13.73;;
54123;SDS011;55741;53.252;5.788;2022-12-18T10:51:06;21.70;;;12.32;;
54123;SDS011;55741;53.252;5.788;2022-12-18T10:53:33;22.05;;;12.82;;
54123;SDS011;55741;53.252;5.788;2022-12-18T10:56:03;23.35;;;11.38;;
54123;SDS011;55741;53.252;5.788;2022-12-18T10:58:32;22.45;;;10.98;;
54123;SDS011;55741;53.252;5.788;2022-12-18T11:06:24;20.73;;;11.43;;
54123;SDS011;55741;53.252;5.788;2022-12-18T11:09:04;20.20;;;11.10;;
54123;SDS011;55741;53.252;5.788;2022-12-18T11:11:43;17.25;;;9.90;;
54123;SDS011;55741;53.252;5.788;2022-12-18T11:14:24;18.88;;;10.02;;
54123;SDS011;55741;53.252;5.788;2022-12-18T11:17:33;18.55;;;10.15;;
54123;SDS011;55741;53.252;5.788;2022-12-18T11:20:01;15.55;;;9.38;;
54123;SDS011;55741;53.252;5.788;2022-12-18T11:22:44;16.90;;;9.23;;
54123;SDS011;55741;53.252;5.788;2022-12-18T11:25:24;15.82;;;8.90;;
54123;SDS011;55741;53.252;5.788;2022-12-18T11:27:52;16.83;;;8.63;;
54123;SDS011;55741;53.252;5.788;2022-12-18T11:30:25;13.30;;;8.15;;
54123;SDS011;55741;53.252;5.788;2022-12-18T11:35:50;14.18;;;8.73;;
54123;SDS011;55741;53.252;5.788;2022-12-18T11:38:32;12.30;;;8.05;;
54123;SDS011;55741;53.252;5.788;2022-12-18T11:41:13;14.40;;;8.05;;
54123;SDS011;55741;53.252;5.788;2022-12-18T11:44:26;14.85;;;8.68;;
54123;SDS011;55741;53.252;5.788;2022-12-18T11:47:09;14.32;;;8.30;;
54123;SDS011;55741;53.252;5.788;2022-12-18T11:49:47;15.30;;;8.53;;
54123;SDS011;55741;53.252;5.788;2022-12-18T11:52:16;13.80;;;7.93;;
54123;SDS011;55741;53.252;5.788;2022-12-18T11:54:53;14.23;;;8.57;;
54123;SDS011;55741;53.252;5.788;2022-12-18T12:08:41;12.02;;;6.90;;
54123;SDS011;55741;53.252;5.788;2022-12-18T12:16:57;14.57;;;7.00;;
54123;SDS011;55741;53.252;5.788;2022-12-18T12:22:29;12.23;;;6.93;;
54123;SDS011;55741;53.252;5.788;2022-12-18T12:33:55;15.07;;;7.50;;
54123;SDS011;55741;53.252;5.788;2022-12-18T12:39:28;15.75;;;8.95;;
54123;SDS011;55741;53.252;5.788;2022-12-18T12:41:57;14.65;;;9.07;;
54123;SDS011;55741;53.252;5.788;2022-12-18T12:44:47;14.57;;;9.25;;
54123;SDS011;55741;53.252;5.788;2022-12-18T12:47:20;16.88;;;9.43;;
54123;SDS011;55741;53.252;5.788;2022-12-18T12:49:50;14.85;;;8.98;;
54123;SDS011;55741;53.252;5.788;2022-12-18T12:54:50;15.50;;;8.77;;
54123;SDS011;55741;53.252;5.788;2022-12-18T12:57:20;14.77;;;8.07;;
54123;SDS011;55741;53.252;5.788;2022-12-18T13:02:31;15.15;;;8.57;;
54123;SDS011;55741;53.252;5.788;2022-12-18T13:05:01;15.55;;;8.95;;
54123;SDS011;55741;53.252;5.788;2022-12-18T13:07:45;14.02;;;9.07;;
54123;SDS011;55741;53.252;5.788;2022-12-18T13:16:06;15.88;;;8.35;;
54123;SDS011;55741;53.252;5.788;2022-12-18T13:23:28;17.25;;;8.48;;
54123;SDS011;55741;53.252;5.788;2022-12-18T13:28:53;13.95;;;8.52;;
54123;SDS011;55741;53.252;5.788;2022-12-18T13:34:14;10.75;;;7.57;;
54123;SDS011;55741;53.252;5.788;2022-12-18T13:36:46;12.90;;;7.85;;
54123;SDS011;55741;53.252;5.788;2022-12-18T13:41:41;13.18;;;7.72;;
54123;SDS011;55741;53.252;5.788;2022-12-18T13:46:54;12.23;;;7.88;;
54123;SDS011;55741;53.252;5.788;2022-12-18T13:52:03;14.43;;;7.93;;
54123;SDS011;55741;53.252;5.788;2022-12-18T13:54:51;13.18;;;6.97;;
54123;SDS011;55741;53.252;5.788;2022-12-18T13:57:25;12.35;;;7.50;;
54123;SDS011;55741;53.252;5.788;2022-12-18T13:59:54;14.43;;;8.20;;
54123;SDS011;55741;53.252;5.788;2022-12-18T14:02:22;12.63;;;7.55;;
54123;SDS011;55741;53.252;5.788;2022-12-18T14:04:50;13.63;;;7.20;;
54123;SDS011;55741;53.252;5.788;2022-12-18T14:07:17;13.38;;;7.13;;
54123;SDS011;55741;53.252;5.788;2022-12-18T14:09:55;13.55;;;6.68;;
54123;SDS011;55741;53.252;5.788;2022-12-18T14:12:23;12.20;;;6.63;;
54123;SDS011;55741;53.252;5.788;2022-12-18T14:20:57;11.13;;;6.82;;
54123;SDS011;55741;53.252;5.788;2022-12-18T14:26:20;11.43;;;7.07;;
54123;SDS011;55741;53.252;5.788;2022-12-18T14:28:48;9.60;;;6.43;;
54123;SDS011;55741;53.252;5.788;2022-12-18T14:31:25;10.68;;;6.18;;
54123;SDS011;55741;53.252;5.788;2022-12-18T14:33:52;13.93;;;6.63;;
54123;SDS011;55741;53.252;5.788;2022-12-18T14:36:22;14.05;;;6.97;;
54123;SDS011;55741;53.252;5.788;2022-12-18T14:38:50;9.45;;;5.88;;
54123;SDS011;55741;53.252;5.788;2022-12-18T14:41:19;11.15;;;6.38;;
54123;SDS011;55741;53.252;5.788;2022-12-18T14:43:47;10.00;;;5.93;;
54123;SDS011;55741;53.252;5.788;2022-12-18T14:49:30;8.85;;;5.60;;
54123;SDS011;55741;53.252;5.788;2022-12-18T14:52:01;10.30;;;5.78;;
54123;SDS011;55741;53.252;5.788;2022-12-18T14:54:31;9.82;;;5.40;;
54123;SDS011;55741;53.252;5.788;2022-12-18T14:57:00;7.20;;;5.13;;
54123;SDS011;55741;53.252;5.788;2022-12-18T14:59:30;12.93;;;6.03;;
54123;SDS011;55741;53.252;5.788;2022-12-18T15:01:59;10.70;;;5.50;;
54123;SDS011;55741;53.252;5.788;2022-12-18T15:04:38;10.63;;;5.25;;
54123;SDS011;55741;53.252;5.788;2022-12-18T15:09:44;11.15;;;5.88;;
54123;SDS011;55741;53.252;5.788;2022-12-18T15:12:43;8.13;;;4.72;;
54123;SDS011;55741;53.252;5.788;2022-12-18T15:20:50;10.18;;;5.80;;
54123;SDS011;55741;53.252;5.788;2022-12-18T15:26:08;9.90;;;6.10;;
54123;SDS011;55741;53.252;5.788;2022-12-18T15:28:37;9.00;;;5.57;;
54123;SDS011;55741;53.252;5.788;2022-12-18T15:31:22;11.80;;;6.15;;
54123;SDS011;55741;53.252;5.788;2022-12-18T15:36:18;10.48;;;5.68;;
54123;SDS011;55741;53.252;5.788;2022-12-18T15:38:48;10.25;;;6.15;;
54123;SDS011;55741;53.252;5.788;2022-12-18T15:41:15;9.70;;;6.00;;
54123;SDS011;55741;53.252;5.788;2022-12-18T15:43:43;9.60;;;6.05;;
54123;SDS011;55741;53.252;5.788;2022-12-18T15:46:14;8.93;;;5.68;;
54123;SDS011;55741;53.252;5.788;2022-12-18T15:48:42;9.63;;;5.65;;
54123;SDS011;55741;53.252;5.788;2022-12-18T15:51:16;11.65;;;5.90;;
54123;SDS011;55741;53.252;5.788;2022-12-18T15:53:45;10.65;;;5.65;;
54123;SDS011;55741;53.252;5.788;2022-12-18T15:56:13;10.88;;;6.03;;
54123;SDS011;55741;53.252;5.788;2022-12-18T15:58:59;12.80;;;7.20;;
54123;SDS011;55741;53.252;5.788;2022-12-18T16:01:27;11.00;;;6.05;;
54123;SDS011;55741;53.252;5.788;2022-12-18T16:03:54;11.68;;;6.57;;
54123;SDS011;55741;53.252;5.788;2022-12-18T16:06:24;10.93;;;5.43;;
54123;SDS011;55741;53.252;5.788;2022-12-18T16:08:49;10.98;;;6.68;;
54123;SDS011;55741;53.252;5.788;2022-12-18T16:11:23;9.80;;;5.82;;
54123;SDS011;55741;53.252;5.788;2022-12-18T16:14:17;11.93;;;6.35;;
54123;SDS011;55741;53.252;5.788;2022-12-18T16:16:47;9.88;;;5.75;;
54123;SDS011;55741;53.252;5.788;2022-12-18T16:19:15;14.38;;;7.25;;
54123;SDS011;55741;53.252;5.788;2022-12-18T16:21:41;10.52;;;6.05;;
54123;SDS011;55741;53.252;5.788;2022-12-18T16:24:16;11.25;;;6.30;;
54123;SDS011;55741;53.252;5.788;2022-12-18T16:26:47;9.32;;;5.95;;
54123;SDS011;55741;53.252;5.788;2022-12-18T16:29:14;11.35;;;6.45;;
54123;SDS011;55741;53.252;5.788;2022-12-18T16:31:40;10.63;;;6.00;;
54123;SDS011;55741;53.252;5.788;2022-12-18T16:34:13;10.60;;;6.15;;
54123;SDS011;55741;53.252;5.788;2022-12-18T16:36:54;10.43;;;6.25;;
54123;SDS011;55741;53.252;5.788;2022-12-18T16:39:20;8.88;;;5.47;;
54123;SDS011;55741;53.252;5.788;2022-12-18T16:41:46;9.85;;;6.05;;
54123;SDS011;55741;53.252;5.788;2022-12-18T16:44:13;9.93;;;6.47;;
54123;SDS011;55741;53.252;5.788;2022-12-18T16:46:39;11.55;;;6.65;;
54123;SDS011;55741;53.252;5.788;2022-12-18T16:49:08;11.85;;;6.57;;
54123;SDS011;55741;53.252;5.788;2022-12-18T16:51:35;13.07;;;6.38;;
54123;SDS011;55741;53.252;5.788;2022-12-18T16:54:01;11.68;;;6.15;;
54123;SDS011;55741;53.252;5.788;2022-12-18T16:56:27;13.88;;;5.90;;
54123;SDS011;55741;53.252;5.788;2022-12-18T16:58:53;8.95;;;5.85;;
54123;SDS011;55741;53.252;5.788;2022-12-18T17:01:20;10.15;;;6.05;;